Time;durP1;ratioP1;P1;durP2;ratioP2;P2;SDS_P1;SDS_P2;PMS_P1;PMS_P2;Temp;Humidity;BMP_temperature;BMP_pressure;BME280_temperature;BME280_humidity;BME280_pressure;Samples;Min_cycle;Max_cycle;Signal;HPM_P1;HPM_P2
2020/12/25 00:00:22;;;;;;;2.58;1.48;;;;;;;0.24;93.79;97154.81;4918423;29;20750;-81
2020/12/25 00:02:48;;;;;;;3.13;1.40;;;;;;;0.12;93.73;97154.47;4908395;29;20055;-81
2020/12/25 00:05:13;;;;;;;2.53;1.45;;;;;;;0.05;93.79;97154.41;4941806;28;20495;-80
2020/12/25 00:07:39;;;;;;;4.03;1.90;;;;;;;0.11;93.67;97158.81;4923394;29;21027;-81
2020/12/25 00:10:05;;;;;;;3.17;1.60;;;;;;;-0.05;93.85;97164.13;4937642;29;20158;-81
2020/12/25 00:12:30;;;;;;;3.72;2.00;;;;;;;-0.02;94.36;97161.19;4957255;28;20515;-80
2020/12/25 00:14:56;;;;;;;4.18;2.25;;;;;;;-0.02;94.60;97162.00;4933656;29;20032;-81
2020/12/25 00:17:22;;;;;;;3.05;1.70;;;;;;;-0.05;94.74;97162.38;4952496;29;20039;-81
2020/12/25 00:19:48;;;;;;;4.03;2.10;;;;;;;-0.05;94.97;97162.38;4935898;29;20459;-80
2020/12/25 00:22:14;;;;;;;4.75;2.55;;;;;;;-0.05;94.60;97162.38;4928861;29;20031;-81
2020/12/25 00:24:40;;;;;;;3.15;2.10;;;;;;;0.00;94.69;97182.31;4925051;29;20040;-81
2020/12/25 00:27:06;;;;;;;5.82;2.70;;;;;;;-0.01;95.41;97180.72;4929965;29;20050;-81
2020/12/25 00:29:34;;;;;;;4.18;2.33;;;;;;;-0.08;95.05;97167.03;4962433;28;20059;-81
2020/12/25 00:31:59;;;;;;;5.22;3.00;;;;;;;0.01;95.48;97177.97;4944660;29;20043;-81
2020/12/25 00:34:25;;;;;;;4.93;2.88;;;;;;;0.03;95.57;97176.81;4927418;29;20030;-81
2020/12/25 00:36:51;;;;;;;5.68;2.95;;;;;;;0.07;95.48;97172.94;4909678;29;20169;-81
2020/12/25 00:39:18;;;;;;;5.30;3.20;;;;;;;0.07;95.04;97177.25;4944870;29;20042;-81
2020/12/25 00:41:48;;;;;;;5.47;3.35;;;;;;;0.13;95.40;97185.03;4926308;29;20130;-81
2020/12/25 00:44:17;;;;;;;5.43;2.20;;;;;;;0.07;94.90;97183.19;4967593;28;20038;-80
2020/12/25 00:46:44;;;;;;;4.38;2.22;;;;;;;0.12;95.15;97180.91;4938774;29;20518;-81
2020/12/25 00:49:13;;;;;;;4.20;2.35;;;;;;;0.16;94.87;97182.13;4945565;29;20047;-81
2020/12/25 00:51:39;;;;;;;2.38;1.50;;;;;;;0.18;94.68;97190.41;4927479;29;20036;-81
2020/12/25 00:54:05;;;;;;;5.43;2.00;;;;;;;0.18;94.90;97187.84;4942011;29;20051;-81
2020/12/25 00:56:30;;;;;;;3.88;2.28;;;;;;;0.18;94.27;97195.53;4948586;29;20027;-80
2020/12/25 00:58:57;;;;;;;5.18;2.85;;;;;;;0.21;94.64;97193.59;4948914;29;20094;-81
2020/12/25 01:01:22;;;;;;;6.50;3.10;;;;;;;0.27;94.56;97187.75;4935483;29;20123;-81
2020/12/25 01:03:48;;;;;;;5.20;2.30;;;;;;;0.29;94.86;97190.94;4924060;28;20040;-80
2020/12/25 01:06:17;;;;;;;7.22;3.25;;;;;;;0.47;94.78;97195.69;4957638;28;20113;-81
2020/12/25 01:08:44;;;;;;;5.68;2.75;;;;;;;0.39;94.47;97180.41;4927170;29;20485;-81
2020/12/25 01:11:12;;;;;;;5.35;3.10;;;;;;;0.51;94.22;97207.16;4931867;29;20038;-81
2020/12/25 01:13:39;;;;;;;4.75;2.75;;;;;;;0.50;94.71;97193.56;4946844;28;20198;-80
2020/12/25 01:16:15;;;;;;;6.00;2.90;;;;;;;0.53;94.25;97208.59;4957494;28;20525;-81
2020/12/25 01:18:47;;;;;;;5.18;2.97;;;;;;;0.53;94.56;97190.66;4951118;28;20634;-81
2020/12/25 01:21:14;;;;;;;4.50;2.28;;;;;;;0.49;94.78;97217.59;4941838;29;20031;-80
2020/12/25 01:23:40;;;;;;;4.95;2.75;;;;;;;0.53;94.87;97213.72;4902418;29;20028;-81
2020/12/25 01:26:06;;;;;;;5.88;3.25;;;;;;;0.53;94.53;97223.94;4942252;29;20603;-81
2020/12/25 01:28:33;;;;;;;6.10;2.70;;;;;;;0.60;94.66;97225.78;4927895;29;20085;-81
2020/12/25 01:30:59;;;;;;;6.05;2.85;;;;;;;0.61;94.93;97217.13;4959020;28;20023;-81
2020/12/25 01:33:25;;;;;;;6.43;2.78;;;;;;;0.51;94.71;97232.78;4950276;28;20132;-82
2020/12/25 01:35:51;;;;;;;6.93;3.10;;;;;;;0.55;93.90;97226.34;4948264;29;20478;-82
2020/12/25 01:38:17;;;;;;;7.35;2.80;;;;;;;0.56;94.40;97227.91;4943601;29;20107;-82
2020/12/25 01:40:43;;;;;;;8.48;3.15;;;;;;;0.63;94.12;97243.38;4942076;29;20047;-81
2020/12/25 01:43:09;;;;;;;6.13;3.15;;;;;;;0.62;94.06;97241.75;4951007;29;20140;-82
2020/12/25 01:45:34;;;;;;;6.47;2.78;;;;;;;0.66;94.25;97240.44;4960401;28;20488;-83
2020/12/25 01:48:00;;;;;;;5.68;3.78;;;;;;;0.66;94.15;97243.81;4944458;29;20074;-82
2020/12/25 01:50:27;;;;;;;7.05;3.60;;;;;;;0.60;93.83;97249.66;4917730;29;20031;-82
2020/12/25 01:52:54;;;;;;;5.22;3.13;;;;;;;0.60;93.87;97247.09;4924409;29;20102;-82
2020/12/25 01:55:26;;;;;;;6.55;2.85;;;;;;;0.65;93.56;97256.78;4936107;28;20114;-82
2020/12/25 01:57:56;;;;;;;8.02;3.08;;;;;;;0.67;93.58;97244.59;4942536;29;20027;-82
2020/12/25 02:00:30;;;;;;;7.85;3.00;;;;;;;0.68;93.86;97246.97;4918866;29;20107;-82
2020/12/25 02:02:55;;;;;;;8.82;3.38;;;;;;;0.72;93.40;97247.41;4930939;29;20568;-82
2020/12/25 02:05:22;;;;;;;8.80;3.15;;;;;;;0.64;93.65;97244.97;4935815;28;20059;-82
2020/12/25 02:07:48;;;;;;;6.65;3.00;;;;;;;0.58;94.03;97235.41;4961814;28;20078;-82
2020/12/25 02:10:14;;;;;;;5.80;3.75;;;;;;;0.66;94.17;97256.59;4924967;29;20484;-82
2020/12/25 02:12:41;;;;;;;6.38;3.35;;;;;;;0.55;93.50;97252.75;4947811;29;20079;-82
2020/12/25 02:15:08;;;;;;;6.32;2.50;;;;;;;0.59;94.19;97265.22;4956341;28;20059;-83
2020/12/25 02:17:34;;;;;;;6.75;2.90;;;;;;;0.54;93.67;97258.84;4926641;29;20036;-82
2020/12/25 02:20:02;;;;;;;5.43;3.25;;;;;;;0.62;93.92;97275.06;4931731;29;20033;-82
2020/12/25 02:22:29;;;;;;;5.90;2.80;;;;;;;0.64;94.19;97275.72;4949138;29;20047;-82
2020/12/25 02:24:55;;;;;;;8.23;3.70;;;;;;;0.65;93.79;97274.72;4939555;29;20098;-82
2020/12/25 02:27:22;;;;;;;7.30;3.55;;;;;;;0.51;94.38;97269.44;4943534;29;20035;-82
2020/12/25 02:29:47;;;;;;;8.57;2.75;;;;;;;0.64;94.61;97280.84;4937142;29;20526;-82
2020/12/25 02:32:13;;;;;;;6.15;3.03;;;;;;;0.66;94.41;97279.66;4926662;29;20043;-83
2020/12/25 02:34:39;;;;;;;6.82;3.25;;;;;;;0.67;94.14;97285.59;4953523;29;20082;-83
2020/12/25 02:37:05;;;;;;;6.18;2.95;;;;;;;0.69;93.69;97284.44;4947639;29;20039;-83
2020/12/25 02:39:30;;;;;;;6.85;3.17;;;;;;;0.70;94.33;97285.22;4935354;29;20071;-83
2020/12/25 02:41:56;;;;;;;7.15;3.58;;;;;;;0.70;94.35;97292.91;4950785;28;20186;-83
2020/12/25 02:44:22;;;;;;;6.68;2.95;;;;;;;0.63;94.12;97285.16;4943633;29;20130;-83
2020/12/25 02:46:49;;;;;;;5.75;3.05;;;;;;;0.62;93.87;97282.75;4932396;29;20359;-82
2020/12/25 02:49:14;;;;;;;5.40;2.58;;;;;;;0.64;94.06;97293.66;4954087;29;20042;-83
2020/12/25 02:51:40;;;;;;;7.57;3.47;;;;;;;0.63;94.22;97287.72;4937940;29;20095;-82
2020/12/25 02:54:06;;;;;;;5.60;3.00;;;;;;;0.53;94.25;97293.13;4931474;29;20036;-82
2020/12/25 02:56:32;;;;;;;8.20;2.83;;;;;;;0.60;94.20;97298.34;4923176;29;20031;-82
2020/12/25 02:58:57;;;;;;;6.60;2.63;;;;;;;0.59;94.38;97306.19;4902734;29;20035;-81
2020/12/25 03:01:23;;;;;;;8.52;2.92;;;;;;;0.63;94.14;97302.28;4940653;29;20044;-82
2020/12/25 03:03:49;;;;;;;6.10;2.85;;;;;;;0.75;93.53;97313.69;4945541;28;20490;-82
2020/12/25 03:06:15;;;;;;;6.70;2.90;;;;;;;0.79;93.47;97319.25;4959871;28;20063;-82
2020/12/25 03:08:41;;;;;;;5.95;2.95;;;;;;;0.78;93.64;97310.78;4923426;29;20470;-82
2020/12/25 03:11:06;;;;;;;5.25;2.60;;;;;;;0.86;93.15;97322.72;4934381;29;20034;-82
2020/12/25 03:13:36;;;;;;;5.60;3.30;;;;;;;0.85;92.55;97324.47;4951538;29;20483;-81
2020/12/25 03:16:03;;;;;;;6.43;3.15;;;;;;;0.70;93.17;97315.97;4943987;29;20035;-82
2020/12/25 03:18:29;;;;;;;9.50;3.40;;;;;;;0.65;93.60;97308.03;4951524;29;20023;-81
2020/12/25 03:20:55;;;;;;;7.57;3.25;;;;;;;0.68;93.66;97325.63;4965839;28;20642;-81
2020/12/25 03:23:21;;;;;;;7.20;3.78;;;;;;;0.74;93.39;97322.38;4940354;29;20028;-82
2020/12/25 03:25:46;;;;;;;7.25;3.60;;;;;;;0.63;93.67;97321.03;4944080;29;20410;-81
2020/12/25 03:28:12;;;;;;;6.47;3.00;;;;;;;0.60;93.74;97323.16;4950627;29;20038;-82
2020/12/25 03:30:38;;;;;;;6.28;3.28;;;;;;;0.70;93.55;97331.34;4949872;29;20043;-81
2020/12/25 03:33:04;;;;;;;6.25;3.28;;;;;;;0.68;93.67;97320.50;4962452;28;20486;-81
2020/12/25 03:35:30;;;;;;;6.30;3.10;;;;;;;0.71;93.69;97318.38;4966133;28;20039;-81
2020/12/25 03:37:56;;;;;;;6.53;3.10;;;;;;;0.64;93.57;97317.50;4966124;28;20039;-81
2020/12/25 03:40:22;;;;;;;5.20;3.05;;;;;;;0.66;93.41;97325.00;4932049;29;20122;-82
2020/12/25 03:42:48;;;;;;;5.80;2.85;;;;;;;0.60;93.90;97316.28;4933946;29;20023;-82
2020/12/25 03:45:15;;;;;;;5.30;3.50;;;;;;;0.64;93.74;97325.19;4965662;28;20086;-82
2020/12/25 03:47:41;;;;;;;6.57;3.10;;;;;;;0.59;93.82;97324.91;4958921;28;20231;-81
2020/12/25 03:50:06;;;;;;;6.28;3.17;;;;;;;0.53;93.64;97315.38;4932736;29;20158;-81
2020/12/25 03:52:32;;;;;;;5.38;2.92;;;;;;;0.55;94.07;97321.91;4951402;29;20344;-81
2020/12/25 03:54:58;;;;;;;6.32;3.20;;;;;;;0.47;93.83;97334.81;4936878;29;20107;-81
2020/12/25 03:57:23;;;;;;;5.40;3.00;;;;;;;0.49;94.38;97332.84;4947699;29;20542;-81
2020/12/25 03:59:48;;;;;;;7.00;3.10;;;;;;;0.42;94.11;97344.00;4933270;29;20029;-81
2020/12/25 04:02:14;;;;;;;7.18;2.88;;;;;;;0.35;94.37;97339.56;4938528;29;20039;-81
2020/12/25 04:04:40;;;;;;;8.13;3.13;;;;;;;0.38;94.40;97335.88;4944753;28;20094;-81
2020/12/25 04:07:06;;;;;;;8.55;3.72;;;;;;;0.35;94.73;97338.78;4951013;29;20380;-82
2020/12/25 04:09:32;;;;;;;6.10;2.97;;;;;;;0.38;94.75;97343.56;4940601;29;20051;-81
2020/12/25 04:11:57;;;;;;;7.00;3.10;;;;;;;0.34;95.15;97337.16;4949409;29;20136;-81
2020/12/25 04:14:23;;;;;;;5.55;2.80;;;;;;;0.38;95.00;97351.25;4965293;28;20558;-81
2020/12/25 04:16:49;;;;;;;4.95;2.78;;;;;;;0.45;94.93;97351.34;4960697;28;20043;-81
2020/12/25 04:19:15;;;;;;;6.85;3.05;;;;;;;0.46;94.74;97342.66;4949804;29;20023;-81
2020/12/25 04:21:41;;;;;;;5.18;2.90;;;;;;;0.50;94.31;97352.41;4949893;29;20589;-81
2020/12/25 04:24:07;;;;;;;5.13;2.58;;;;;;;0.51;94.87;97350.63;4949437;29;20036;-82
2020/12/25 04:26:33;;;;;;;8.15;3.00;;;;;;;0.51;94.09;97360.88;4943423;29;20110;-81
2020/12/25 04:28:59;;;;;;;9.32;4.00;;;;;;;0.53;94.32;97372.53;4965232;28;20039;-81
2020/12/25 04:31:26;;;;;;;5.32;2.50;;;;;;;0.47;94.89;97365.53;4965359;28;20039;-81
2020/12/25 04:33:53;;;;;;;5.32;2.67;;;;;;;0.47;94.45;97368.09;4939081;29;20034;-81
2020/12/25 04:36:19;;;;;;;4.70;2.67;;;;;;;0.49;94.58;97384.09;4950857;29;20082;-81
2020/12/25 04:38:45;;;;;;;4.78;2.70;;;;;;;0.48;94.95;97384.25;4964977;28;20027;-81
2020/12/25 04:41:12;;;;;;;6.28;3.33;;;;;;;0.56;94.88;97379.84;4962665;28;20031;-81
2020/12/25 04:43:40;;;;;;;6.15;3.08;;;;;;;0.51;94.21;97379.59;4958878;28;20031;-81
2020/12/25 04:46:06;;;;;;;6.82;3.13;;;;;;;0.56;94.22;97386.75;4949440;29;20106;-80
2020/12/25 04:48:34;;;;;;;4.93;2.70;;;;;;;0.60;93.52;97397.44;4958128;28;20030;-81
2020/12/25 04:51:01;;;;;;;8.60;3.20;;;;;;;0.53;93.41;97389.66;4933303;29;20038;-80
2020/12/25 04:53:26;;;;;;;7.55;3.03;;;;;;;0.48;94.18;97387.66;4933120;29;20382;-81
2020/12/25 04:55:52;;;;;;;6.88;2.97;;;;;;;0.63;93.94;97391.97;4958261;28;20053;-81
2020/12/25 04:58:18;;;;;;;7.68;3.45;;;;;;;0.52;93.74;97382.97;4933075;29;20067;-81
2020/12/25 05:01:00;;;;;;;5.95;3.05;;;;;;;0.53;93.73;97382.78;4958231;28;20031;-81
2020/12/25 05:03:26;;;;;;;7.97;3.28;;;;;;;0.60;93.78;97385.44;4952623;29;20461;-81
2020/12/25 05:05:51;;;;;;;6.90;3.08;;;;;;;0.70;93.36;97395.44;4936118;29;20067;-81
2020/12/25 05:08:19;;;;;;;7.78;2.92;;;;;;;0.50;93.83;97387.47;4948294;29;20117;-81
2020/12/25 05:10:44;;;;;;;6.63;3.40;;;;;;;0.61;93.64;97393.94;4940000;29;20027;-81
2020/12/25 05:13:10;;;;;;;8.00;3.63;;;;;;;0.62;93.57;97401.44;4952259;29;20041;-81
2020/12/25 05:15:36;;;;;;;7.22;3.33;;;;;;;0.54;93.36;97394.63;4968592;28;20035;-81
2020/12/25 05:18:05;;;;;;;7.90;3.50;;;;;;;0.53;93.45;97399.91;4949340;29;20514;-81
2020/12/25 05:20:31;;;;;;;6.55;3.55;;;;;;;0.56;93.63;97405.47;4953319;29;20491;-81
2020/12/25 05:23:17;;;;;;;5.70;3.35;;;;;;;0.56;93.63;97412.38;4967908;28;20121;-81
2020/12/25 05:25:45;;;;;;;6.55;3.38;;;;;;;0.51;93.56;97412.09;4926784;29;20057;-81
2020/12/25 05:28:11;;;;;;;6.53;4.03;;;;;;;0.50;93.60;97420.78;4920055;29;20039;-81
2020/12/25 05:30:37;;;;;;;6.45;3.30;;;;;;;0.45;94.17;97410.25;4952890;29;20070;-80
2020/12/25 05:33:03;;;;;;;8.35;3.60;;;;;;;0.44;94.44;97408.66;4957646;28;20027;-81
2020/12/25 05:35:29;;;;;;;6.32;3.00;;;;;;;0.41;94.29;97414.91;4968091;28;20070;-81
2020/12/25 05:37:55;;;;;;;7.38;4.00;;;;;;;0.49;94.55;97424.28;4951898;29;20031;-81
2020/12/25 05:40:21;;;;;;;7.28;3.55;;;;;;;0.46;94.24;97427.97;4932168;29;20033;-81
2020/12/25 05:42:48;;;;;;;7.82;3.95;;;;;;;0.46;94.71;97427.97;4951936;29;20039;-81
2020/12/25 05:45:21;;;;;;;8.27;4.78;;;;;;;0.50;94.43;97436.94;4935741;29;20047;-80
2020/12/25 05:47:47;;;;;;;5.70;3.33;;;;;;;0.48;94.41;97426.06;4934631;29;20035;-81
2020/12/25 05:50:22;;;;;;;7.70;3.83;;;;;;;0.41;94.10;97420.03;4935298;29;20062;-81
2020/12/25 05:52:48;;;;;;;6.65;3.78;;;;;;;0.51;94.00;97430.03;4951459;29;20102;-81
2020/12/25 05:55:21;;;;;;;10.45;4.78;;;;;;;0.47;94.38;97427.03;4964933;28;20042;-81
2020/12/25 05:57:51;;;;;;;8.60;4.60;;;;;;;0.45;93.93;97434.09;4951988;29;20122;-81
2020/12/25 06:00:22;;;;;;;7.20;3.95;;;;;;;0.59;94.13;97447.91;4953270;28;20042;-81
2020/12/25 06:02:48;;;;;;;7.68;4.75;;;;;;;0.63;93.39;97454.25;4933249;29;20035;-81
2020/12/25 06:05:16;;;;;;;8.77;4.45;;;;;;;0.83;93.23;97449.44;4955486;28;20078;-81
2020/12/25 06:07:58;;;;;;;8.23;3.90;;;;;;;0.98;92.58;97452.03;4953209;28;20098;-81
2020/12/25 06:10:26;;;;;;;7.35;4.10;;;;;;;1.10;91.69;97460.06;4961466;28;20061;-81
2020/12/25 06:12:53;;;;;;;7.28;4.25;;;;;;;1.12;91.72;97464.03;4965540;28;20498;-82
2020/12/25 06:15:23;;;;;;;7.18;4.10;;;;;;;1.06;91.36;97466.50;4963102;28;20492;-81
2020/12/25 06:17:57;;;;;;;8.20;4.43;;;;;;;1.12;91.97;97474.31;4959004;28;20415;-82
2020/12/25 06:20:24;;;;;;;9.75;5.03;;;;;;;1.12;91.56;97468.38;4927943;29;20510;-81
2020/12/25 06:22:50;;;;;;;9.00;4.40;;;;;;;1.12;91.46;97465.81;4965943;28;20046;-81
2020/12/25 06:25:16;;;;;;;9.63;4.93;;;;;;;1.10;92.02;97470.34;4942872;29;20047;-81
2020/12/25 06:27:50;;;;;;;9.63;4.45;;;;;;;1.25;91.40;97478.84;4929410;29;20035;-81
2020/12/25 06:30:30;;;;;;;8.13;4.80;;;;;;;1.15;91.65;97478.28;4965548;28;20034;-81
2020/12/25 06:32:57;;;;;;;8.77;5.10;;;;;;;1.12;91.69;97469.19;4963763;28;20038;-81
2020/12/25 06:35:31;;;;;;;9.45;5.68;;;;;;;1.11;91.13;97477.03;4934134;29;20114;-81
2020/12/25 06:37:57;;;;;;;11.13;5.28;;;;;;;1.26;91.51;97489.88;4966447;28;20034;-81
2020/12/25 06:40:24;;;;;;;8.23;4.68;;;;;;;1.33;91.26;97489.97;4943938;29;20202;-81
2020/12/25 06:42:54;;;;;;;9.70;5.40;;;;;;;1.26;91.06;97498.34;4934730;29;20027;-81
2020/12/25 06:45:22;;;;;;;8.45;4.68;;;;;;;1.23;91.39;97501.28;4934785;29;20035;-80
2020/12/25 06:47:48;;;;;;;8.77;4.53;;;;;;;1.29;91.15;97497.22;4940867;29;20027;-81
2020/12/25 06:50:15;;;;;;;7.85;4.75;;;;;;;1.35;91.34;97508.53;4966617;28;20027;-81
2020/12/25 06:52:55;;;;;;;8.77;5.00;;;;;;;1.33;90.80;97503.59;4934553;29;20038;-81
2020/12/25 06:55:22;;;;;;;18.00;9.38;;;;;;;1.23;91.20;97495.34;4932603;29;20031;-81
2020/12/25 06:57:52;;;;;;;16.60;7.90;;;;;;;1.31;91.38;97513.22;4958626;28;20031;-81
2020/12/25 07:00:19;;;;;;;21.30;9.73;;;;;;;1.17;91.22;97507.13;4928083;29;20538;-81
2020/12/25 07:02:45;;;;;;;15.35;7.95;;;;;;;1.03;92.11;97515.56;4942943;29;20107;-81
2020/12/25 07:05:11;;;;;;;14.95;8.20;;;;;;;1.12;92.36;97528.16;4965964;28;20074;-80
2020/12/25 07:07:37;;;;;;;16.05;8.75;;;;;;;1.05;92.27;97523.91;4934606;29;20110;-81
2020/12/25 07:10:10;;;;;;;13.68;7.43;;;;;;;1.09;92.12;97533.63;4960210;28;20028;-81
2020/12/25 07:12:36;;;;;;;10.60;5.85;;;;;;;1.17;92.18;97526.84;4933511;29;20032;-81
2020/12/25 07:15:04;;;;;;;10.10;5.95;;;;;;;1.15;92.40;97550.09;4949886;29;20060;-81
2020/12/25 07:17:29;;;;;;;12.30;6.25;;;;;;;0.90;92.45;97534.13;4919102;29;20032;-81
2020/12/25 07:19:55;;;;;;;12.25;5.68;;;;;;;0.86;93.26;97540.59;4927062;29;20050;-81
2020/12/25 07:22:21;;;;;;;10.45;6.22;;;;;;;0.87;93.43;97558.34;4934096;29;20031;-80
2020/12/25 07:24:48;;;;;;;12.13;5.30;;;;;;;0.96;92.87;97558.28;4965969;28;20421;-81
2020/12/25 07:27:14;;;;;;;9.95;6.32;;;;;;;0.87;93.02;97549.84;4927757;29;20455;-81
2020/12/25 07:29:41;;;;;;;10.50;5.85;;;;;;;0.86;93.04;97551.63;4933813;29;20027;-81
2020/12/25 07:32:08;;;;;;;11.57;5.22;;;;;;;0.99;92.88;97558.72;4965925;28;20045;-81
2020/12/25 07:34:33;;;;;;;9.52;5.20;;;;;;;0.86;92.95;97556.75;4945555;28;20031;-81
2020/12/25 07:36:59;;;;;;;18.65;9.73;;;;;;;0.87;93.04;97552.41;4966093;28;20035;-80
2020/12/25 07:39:27;;;;;;;10.85;6.90;;;;;;;0.77;92.57;97555.22;4917595;29;20030;-81
2020/12/25 07:41:53;;;;;;;10.95;6.70;;;;;;;0.72;93.07;97553.19;4947820;29;20387;-80
2020/12/25 07:44:19;;;;;;;10.55;6.15;;;;;;;0.73;93.16;97567.56;4939480;29;20046;-80
2020/12/25 07:46:45;;;;;;;10.10;5.72;;;;;;;0.73;93.09;97575.25;4927412;29;20079;-80
2020/12/25 07:49:11;;;;;;;9.63;5.55;;;;;;;0.77;93.22;97577.50;4953184;28;20031;-81
2020/12/25 07:51:37;;;;;;;8.18;5.10;;;;;;;0.73;92.58;97564.22;4932838;29;20039;-80
2020/12/25 07:54:04;;;;;;;10.05;5.07;;;;;;;0.72;92.32;97572.88;4917785;29;20526;-81
2020/12/25 07:56:31;;;;;;;10.88;5.45;;;;;;;0.69;92.24;97576.59;4954610;28;20485;-81
2020/12/25 07:58:58;;;;;;;9.20;4.78;;;;;;;0.87;92.29;97594.22;4925915;29;20571;-81
2020/12/25 08:01:25;;;;;;;8.38;4.95;;;;;;;0.89;91.76;97597.44;4914883;29;20050;-80
2020/12/25 08:03:51;;;;;;;11.02;5.53;;;;;;;0.88;91.66;97589.91;4919504;28;20111;-81
2020/12/25 08:06:19;;;;;;;11.93;6.25;;;;;;;0.86;91.92;97602.91;4928839;29;20054;-80
2020/12/25 08:08:49;;;;;;;11.18;5.47;;;;;;;0.86;91.59;97608.03;4951782;28;20114;-81
2020/12/25 08:11:17;;;;;;;8.85;5.25;;;;;;;0.83;91.76;97607.56;4962067;28;20034;-81
2020/12/25 08:13:48;;;;;;;12.55;6.80;;;;;;;0.77;91.77;97610.81;4934747;29;20406;-80
2020/12/25 08:16:15;;;;;;;9.40;5.53;;;;;;;0.87;91.38;97608.81;4943129;28;20031;-81
2020/12/25 08:18:41;;;;;;;10.07;5.35;;;;;;;0.74;91.71;97612.75;4905707;29;20061;-80
2020/12/25 08:21:06;;;;;;;10.93;5.65;;;;;;;0.72;91.74;97617.25;4951032;28;20035;-80
2020/12/25 08:23:35;;;;;;;10.43;5.95;;;;;;;0.69;91.80;97616.78;4926718;29;20047;-80
2020/12/25 08:26:06;;;;;;;11.73;5.78;;;;;;;0.63;91.36;97620.03;4956238;28;20048;-80
2020/12/25 08:28:32;;;;;;;11.27;6.78;;;;;;;0.66;91.59;97640.97;4923637;29;20035;-80
2020/12/25 08:30:58;;;;;;;9.00;5.18;;;;;;;0.50;91.05;97638.53;4948784;29;20866;-79
2020/12/25 08:33:26;;;;;;;9.95;5.90;;;;;;;0.60;91.50;97649.38;4966588;28;20106;-80
2020/12/25 08:35:53;;;;;;;9.82;5.93;;;;;;;0.59;91.62;97641.84;4928026;29;20032;-80
2020/12/25 08:38:20;;;;;;;9.02;5.35;;;;;;;0.61;91.64;97653.50;4963930;28;20031;-80
2020/12/25 08:40:47;;;;;;;9.25;5.10;;;;;;;0.66;91.46;97655.56;4948364;29;20106;-80
2020/12/25 08:43:16;;;;;;;11.45;6.43;;;;;;;0.55;91.45;97649.84;4965045;28;20034;-80
2020/12/25 08:46:00;;;;;;;10.63;5.65;;;;;;;0.45;91.16;97639.03;4953990;29;20035;-81
2020/12/25 08:48:34;;;;;;;9.85;5.28;;;;;;;0.40;90.84;97643.84;4932308;29;20031;-80
2020/12/25 08:51:06;;;;;;;9.20;5.65;;;;;;;0.39;91.04;97636.34;4948993;29;20035;-81
2020/12/25 08:53:33;;;;;;;10.63;5.78;;;;;;;0.65;90.36;97647.09;4969892;28;20078;-80
2020/12/25 08:56:13;;;;;;;9.48;5.68;;;;;;;0.63;90.59;97653.34;4935706;29;20086;-80
2020/12/25 08:58:38;;;;;;;8.90;5.53;;;;;;;0.53;90.45;97648.41;4954385;29;20063;-80
2020/12/25 09:01:04;;;;;;;9.80;5.53;;;;;;;0.61;89.62;97661.19;4957993;28;20881;-80
2020/12/25 09:03:37;;;;;;;9.73;5.53;;;;;;;0.55;89.98;97646.50;4949390;29;20054;-80
2020/12/25 09:06:03;;;;;;;8.82;5.18;;;;;;;0.47;90.11;97654.22;4962766;28;20058;-80
2020/12/25 09:08:29;;;;;;;11.85;6.45;;;;;;;0.36;90.96;97653.63;4958196;28;20561;-80
2020/12/25 09:10:55;;;;;;;11.15;6.60;;;;;;;0.32;91.16;97662.59;4918249;29;20179;-79
2020/12/25 09:13:21;;;;;;;11.85;5.93;;;;;;;0.44;91.22;97673.28;4952965;29;20051;-79
2020/12/25 09:15:47;;;;;;;11.82;6.38;;;;;;;0.48;90.98;97676.31;4963515;28;20044;-80
2020/12/25 09:18:13;;;;;;;11.55;6.72;;;;;;;0.51;90.86;97681.09;4933413;29;20031;-79
2020/12/25 09:20:38;;;;;;;11.02;6.63;;;;;;;0.53;90.58;97685.09;4935016;29;20245;-79
2020/12/25 09:23:04;;;;;;;11.50;6.95;;;;;;;0.50;90.77;97682.09;4932362;29;20345;-79
2020/12/25 09:25:32;;;;;;;12.90;7.05;;;;;;;0.54;91.03;97685.91;4949145;29;20166;-79
2020/12/25 09:27:57;;;;;;;13.10;7.32;;;;;;;0.66;90.04;97689.66;4949629;28;20134;-79
2020/12/25 09:30:23;;;;;;;11.27;6.57;;;;;;;0.58;89.67;97697.41;4952047;29;20372;-79
2020/12/25 09:32:49;;;;;;;11.90;6.43;;;;;;;0.60;89.52;97704.91;4942537;29;20365;-79
2020/12/25 09:35:15;;;;;;;11.15;6.32;;;;;;;0.62;89.43;97702.97;4961496;28;20020;-79
2020/12/25 09:37:41;;;;;;;11.50;6.18;;;;;;;0.55;90.43;97701.09;4967954;28;20050;-79
2020/12/25 09:40:07;;;;;;;14.48;6.97;;;;;;;0.55;90.84;97708.78;4961435;28;20519;-79
2020/12/25 09:42:33;;;;;;;11.88;5.80;;;;;;;0.63;90.78;97714.84;4958072;28;20468;-79
2020/12/25 09:44:59;;;;;;;10.85;6.20;;;;;;;0.62;90.08;97710.66;4931787;29;20043;-79
2020/12/25 09:47:25;;;;;;;9.75;5.72;;;;;;;0.61;90.23;97712.44;4932623;29;20133;-79
2020/12/25 09:49:51;;;;;;;9.23;5.38;;;;;;;0.65;89.96;97718.84;4959468;28;20041;-79
2020/12/25 09:52:17;;;;;;;9.98;5.50;;;;;;;0.69;89.84;97720.09;4935795;29;20515;-79
2020/12/25 09:54:43;;;;;;;9.63;4.72;;;;;;;0.66;88.88;97724.75;4946982;29;20043;-79
2020/12/25 09:57:08;;;;;;;8.13;4.75;;;;;;;0.71;89.13;97722.50;4942531;29;20043;-79
2020/12/25 09:59:34;;;;;;;7.82;4.72;;;;;;;0.72;89.46;97718.94;4916560;29;20050;-78
2020/12/25 10:01:59;;;;;;;9.55;5.28;;;;;;;0.70;89.53;97716.56;4945166;29;20028;-79
2020/12/25 10:04:25;;;;;;;12.32;5.63;;;;;;;0.81;89.53;97725.66;4951396;28;20047;-78
2020/12/25 10:06:55;;;;;;;6.00;3.78;;;;;;;0.77;88.73;97728.72;4935548;29;20395;-79
2020/12/25 10:09:21;;;;;;;5.97;4.35;;;;;;;0.64;89.31;97724.13;4945787;29;20023;-79
2020/12/25 10:11:46;;;;;;;7.80;4.63;;;;;;;0.60;88.96;97733.94;4935091;29;20050;-78
2020/12/25 10:14:12;;;;;;;8.50;4.55;;;;;;;0.61;88.92;97732.16;4961502;28;20114;-78
2020/12/25 10:16:38;;;;;;;7.25;4.57;;;;;;;0.58;89.39;97728.13;4927937;29;20023;-78
2020/12/25 10:19:04;;;;;;;8.90;3.97;;;;;;;0.63;89.75;97737.91;4928767;29;20501;-78
2020/12/25 10:21:30;;;;;;;7.50;4.70;;;;;;;0.61;90.67;97732.94;4928178;29;20472;-78
2020/12/25 10:23:56;;;;;;;6.57;4.13;;;;;;;0.51;89.23;97733.13;4944303;28;20099;-78
2020/12/25 10:26:22;;;;;;;8.13;4.10;;;;;;;0.49;89.21;97734.28;4945590;29;20031;-78
2020/12/25 10:28:48;;;;;;;7.97;5.13;;;;;;;0.41;89.06;97722.28;4924915;29;20047;-78
2020/12/25 10:31:14;;;;;;;6.97;2.88;;;;;;;0.46;88.98;97725.16;4937668;29;20146;-79
2020/12/25 10:33:40;;;;;;;5.45;3.08;;;;;;;0.53;88.19;97725.28;4905390;29;20114;-79
2020/12/25 10:36:05;;;;;;;5.70;3.00;;;;;;;0.55;88.78;97713.91;4918849;29;20042;-78
2020/12/25 10:38:32;;;;;;;4.95;3.17;;;;;;;0.62;88.75;97720.91;4919126;29;20027;-79
2020/12/25 10:40:58;;;;;;;6.82;3.85;;;;;;;0.70;88.71;97734.53;4938620;29;20062;-79
2020/12/25 10:43:23;;;;;;;8.65;3.20;;;;;;;0.74;87.84;97728.09;4949370;29;20055;-78
2020/12/25 10:45:49;;;;;;;6.45;3.28;;;;;;;0.75;87.85;97731.44;4918082;29;20082;-78
2020/12/25 10:48:15;;;;;;;5.55;2.30;;;;;;;0.77;86.21;97732.06;4919819;29;20498;-79
2020/12/25 10:50:41;;;;;;;4.15;2.28;;;;;;;0.84;86.77;97717.63;4944567;29;20486;-79
2020/12/25 10:53:06;;;;;;;6.60;3.05;;;;;;;0.87;86.91;97722.41;4948226;29;20047;-78
2020/12/25 10:55:32;;;;;;;5.28;2.67;;;;;;;1.04;88.04;97727.44;4966093;28;20066;-78
2020/12/25 10:57:58;;;;;;;4.03;2.60;;;;;;;1.15;87.53;97721.94;4967313;28;20031;-78
2020/12/25 11:00:24;;;;;;;3.78;2.72;;;;;;;1.29;86.49;97728.09;4959769;28;20042;-78
2020/12/25 11:02:50;;;;;;;3.17;1.90;;;;;;;1.17;86.43;97727.69;4938713;28;20036;-78
2020/12/25 11:05:16;;;;;;;4.78;2.53;;;;;;;1.13;86.43;97731.53;4944206;28;20125;-78
2020/12/25 11:07:43;;;;;;;5.80;2.35;;;;;;;1.10;86.42;97731.91;4911193;29;20074;-78
2020/12/25 11:10:08;;;;;;;4.38;2.20;;;;;;;1.12;85.45;97730.75;4950843;29;20479;-78
2020/12/25 11:12:37;;;;;;;6.45;2.03;;;;;;;1.09;83.64;97740.56;4935209;29;20081;-78
2020/12/25 11:15:02;;;;;;;3.63;2.30;;;;;;;1.08;84.61;97738.94;4933463;29;20432;-78
2020/12/25 11:17:28;;;;;;;3.72;1.88;;;;;;;1.00;84.64;97726.97;4920813;29;20122;-78
2020/12/25 11:19:55;;;;;;;4.43;2.05;;;;;;;1.06;83.81;97736.56;4929909;29;20130;-77
2020/12/25 11:22:22;;;;;;;4.22;2.20;;;;;;;1.03;85.71;97730.97;4939790;29;20610;-77
2020/12/25 11:24:48;;;;;;;2.53;1.38;;;;;;;1.06;85.93;97725.50;4930130;29;20021;-77
2020/12/25 11:27:14;;;;;;;3.97;1.95;;;;;;;1.15;86.68;97728.81;4939298;29;20058;-77
2020/12/25 11:29:39;;;;;;;6.07;1.88;;;;;;;1.29;85.49;97731.44;4935381;29;20032;-77
2020/12/25 11:32:05;;;;;;;3.25;1.83;;;;;;;1.17;83.80;97730.25;4919356;29;20024;-78
2020/12/25 11:34:31;;;;;;;3.30;1.83;;;;;;;1.19;84.56;97725.75;4910251;29;20368;-77
2020/12/25 11:36:57;;;;;;;2.63;1.30;;;;;;;1.32;83.41;97732.88;4934657;29;20047;-77